sensor_id;sensor_type;location;lat;lon;timestamp;P1;durP1;ratioP1;P2;durP2;ratioP2
78728;SDS011;68252;44.944;20.218;2024-02-23T00:00:50;30.80;;;14.80;;
78728;SDS011;68252;44.944;20.218;2024-02-23T00:03:16;35.83;;;15.63;;
78728;SDS011;68252;44.944;20.218;2024-02-23T00:05:42;35.08;;;16.52;;
78728;SDS011;68252;44.944;20.218;2024-02-23T00:08:08;34.80;;;16.33;;
78728;SDS011;68252;44.944;20.218;2024-02-23T00:10:34;31.05;;;14.35;;
78728;SDS011;68252;44.944;20.218;2024-02-23T00:13:00;29.17;;;14.77;;
78728;SDS011;68252;44.944;20.218;2024-02-23T00:15:27;29.00;;;13.85;;
78728;SDS011;68252;44.944;20.218;2024-02-23T00:17:53;30.55;;;13.43;;
78728;SDS011;68252;44.944;20.218;2024-02-23T00:20:19;27.67;;;12.55;;
78728;SDS011;68252;44.944;20.218;2024-02-23T00:22:45;31.15;;;12.00;;
78728;SDS011;68252;44.944;20.218;2024-02-23T00:25:11;23.73;;;11.82;;
78728;SDS011;68252;44.944;20.218;2024-02-23T00:27:38;25.60;;;11.27;;
78728;SDS011;68252;44.944;20.218;2024-02-23T00:30:06;30.48;;;12.52;;
78728;SDS011;68252;44.944;20.218;2024-02-23T00:32:33;24.58;;;11.38;;
78728;SDS011;68252;44.944;20.218;2024-02-23T00:34:59;23.67;;;10.95;;
78728;SDS011;68252;44.944;20.218;2024-02-23T00:37:25;32.40;;;11.70;;
78728;SDS011;68252;44.944;20.218;2024-02-23T00:39:51;21.75;;;10.32;;
78728;SDS011;68252;44.944;20.218;2024-02-23T00:42:17;23.05;;;9.75;;
78728;SDS011;68252;44.944;20.218;2024-02-23T00:44:43;28.48;;;9.20;;
78728;SDS011;68252;44.944;20.218;2024-02-23T00:47:09;19.08;;;9.05;;
78728;SDS011;68252;44.944;20.218;2024-02-23T00:49:35;21.38;;;9.23;;
78728;SDS011;68252;44.944;20.218;2024-02-23T00:52:01;19.92;;;8.32;;
78728;SDS011;68252;44.944;20.218;2024-02-23T00:54:27;18.08;;;8.13;;
78728;SDS011;68252;44.944;20.218;2024-02-23T00:56:53;19.42;;;8.45;;
78728;SDS011;68252;44.944;20.218;2024-02-23T00:59:19;18.92;;;7.95;;
78728;SDS011;68252;44.944;20.218;2024-02-23T01:01:46;19.38;;;7.75;;
78728;SDS011;68252;44.944;20.218;2024-02-23T01:04:12;15.23;;;6.72;;
78728;SDS011;68252;44.944;20.218;2024-02-23T01:06:38;15.82;;;6.57;;
78728;SDS011;68252;44.944;20.218;2024-02-23T01:09:04;19.35;;;7.20;;
78728;SDS011;68252;44.944;20.218;2024-02-23T01:11:30;21.55;;;7.40;;
78728;SDS011;68252;44.944;20.218;2024-02-23T01:13:56;13.65;;;6.10;;
78728;SDS011;68252;44.944;20.218;2024-02-23T01:16:22;16.65;;;6.82;;
78728;SDS011;68252;44.944;20.218;2024-02-23T01:18:48;18.65;;;6.47;;
78728;SDS011;68252;44.944;20.218;2024-02-23T01:21:14;13.75;;;5.65;;
78728;SDS011;68252;44.944;20.218;2024-02-23T01:23:40;17.85;;;6.60;;
78728;SDS011;68252;44.944;20.218;2024-02-23T01:26:06;12.27;;;5.57;;
78728;SDS011;68252;44.944;20.218;2024-02-23T01:28:32;16.23;;;5.45;;
78728;SDS011;68252;44.944;20.218;2024-02-23T01:30:59;11.82;;;5.80;;
78728;SDS011;68252;44.944;20.218;2024-02-23T01:33:25;14.40;;;5.70;;
78728;SDS011;68252;44.944;20.218;2024-02-23T01:35:51;13.88;;;6.45;;
78728;SDS011;68252;44.944;20.218;2024-02-23T01:38:17;12.50;;;5.85;;
78728;SDS011;68252;44.944;20.218;2024-02-23T01:40:47;12.25;;;6.38;;
78728;SDS011;68252;44.944;20.218;2024-02-23T01:43:13;13.52;;;6.18;;
78728;SDS011;68252;44.944;20.218;2024-02-23T01:45:39;13.35;;;6.60;;
78728;SDS011;68252;44.944;20.218;2024-02-23T01:48:05;14.63;;;4.85;;
78728;SDS011;68252;44.944;20.218;2024-02-23T01:50:32;21.65;;;6.70;;
78728;SDS011;68252;44.944;20.218;2024-02-23T01:53:00;16.35;;;5.00;;
78728;SDS011;68252;44.944;20.218;2024-02-23T01:55:26;13.35;;;4.97;;
78728;SDS011;68252;44.944;20.218;2024-02-23T01:57:52;16.63;;;5.43;;
78728;SDS011;68252;44.944;20.218;2024-02-23T02:00:19;19.20;;;5.25;;
78728;SDS011;68252;44.944;20.218;2024-02-23T02:02:48;9.95;;;4.93;;
78728;SDS011;68252;44.944;20.218;2024-02-23T02:05:14;13.10;;;5.63;;
78728;SDS011;68252;44.944;20.218;2024-02-23T02:07:40;9.95;;;5.03;;
78728;SDS011;68252;44.944;20.218;2024-02-23T02:10:08;11.70;;;4.50;;
78728;SDS011;68252;44.944;20.218;2024-02-23T02:12:34;11.50;;;5.72;;
78728;SDS011;68252;44.944;20.218;2024-02-23T02:15:00;14.25;;;5.30;;
78728;SDS011;68252;44.944;20.218;2024-02-23T02:17:27;17.88;;;5.10;;
78728;SDS011;68252;44.944;20.218;2024-02-23T02:19:53;21.30;;;5.13;;
78728;SDS011;68252;44.944;20.218;2024-02-23T02:22:20;9.95;;;5.07;;
78728;SDS011;68252;44.944;20.218;2024-02-23T02:24:46;11.73;;;5.38;;
78728;SDS011;68252;44.944;20.218;2024-02-23T02:27:13;10.57;;;5.28;;
78728;SDS011;68252;44.944;20.218;2024-02-23T02:29:39;9.32;;;4.80;;
78728;SDS011;68252;44.944;20.218;2024-02-23T02:32:05;8.85;;;4.63;;
78728;SDS011;68252;44.944;20.218;2024-02-23T02:34:32;9.43;;;4.85;;
78728;SDS011;68252;44.944;20.218;2024-02-23T02:36:59;11.05;;;4.68;;
78728;SDS011;68252;44.944;20.218;2024-02-23T02:39:25;10.43;;;5.10;;
78728;SDS011;68252;44.944;20.218;2024-02-23T02:41:51;8.60;;;4.65;;
78728;SDS011;68252;44.944;20.218;2024-02-23T02:44:17;7.07;;;4.13;;
78728;SDS011;68252;44.944;20.218;2024-02-23T02:46:44;9.85;;;4.38;;
78728;SDS011;68252;44.944;20.218;2024-02-23T02:49:11;7.38;;;4.70;;
78728;SDS011;68252;44.944;20.218;2024-02-23T02:51:37;9.05;;;4.97;;
78728;SDS011;68252;44.944;20.218;2024-02-23T02:54:03;9.85;;;4.72;;
78728;SDS011;68252;44.944;20.218;2024-02-23T02:56:30;7.97;;;4.30;;
78728;SDS011;68252;44.944;20.218;2024-02-23T02:58:56;13.82;;;4.47;;
78728;SDS011;68252;44.944;20.218;2024-02-23T03:01:22;8.60;;;4.45;;
78728;SDS011;68252;44.944;20.218;2024-02-23T03:03:48;9.25;;;5.00;;
78728;SDS011;68252;44.944;20.218;2024-02-23T03:06:14;9.90;;;3.80;;
78728;SDS011;68252;44.944;20.218;2024-02-23T03:08:43;16.27;;;3.72;;
78728;SDS011;68252;44.944;20.218;2024-02-23T03:11:09;10.90;;;4.22;;
78728;SDS011;68252;44.944;20.218;2024-02-23T03:13:37;8.05;;;3.70;;
78728;SDS011;68252;44.944;20.218;2024-02-23T03:16:03;13.10;;;3.75;;
78728;SDS011;68252;44.944;20.218;2024-02-23T03:18:29;9.05;;;4.18;;
78728;SDS011;68252;44.944;20.218;2024-02-23T03:20:55;7.95;;;4.53;;
78728;SDS011;68252;44.944;20.218;2024-02-23T03:23:21;6.97;;;4.13;;
78728;SDS011;68252;44.944;20.218;2024-02-23T03:25:48;8.43;;;4.28;;
78728;SDS011;68252;44.944;20.218;2024-02-23T03:28:14;9.50;;;4.50;;
78728;SDS011;68252;44.944;20.218;2024-02-23T03:30:40;7.60;;;4.40;;
78728;SDS011;68252;44.944;20.218;2024-02-23T03:33:06;8.80;;;4.28;;
78728;SDS011;68252;44.944;20.218;2024-02-23T03:35:33;7.28;;;4.32;;
78728;SDS011;68252;44.944;20.218;2024-02-23T03:37:59;9.38;;;4.45;;
78728;SDS011;68252;44.944;20.218;2024-02-23T03:40:25;8.48;;;3.80;;
78728;SDS011;68252;44.944;20.218;2024-02-23T03:42:51;8.63;;;3.60;;
78728;SDS011;68252;44.944;20.218;2024-02-23T03:45:17;7.60;;;4.03;;
78728;SDS011;68252;44.944;20.218;2024-02-23T03:47:43;8.55;;;3.92;;
78728;SDS011;68252;44.944;20.218;2024-02-23T03:50:09;7.40;;;4.40;;
78728;SDS011;68252;44.944;20.218;2024-02-23T03:52:35;13.45;;;4.15;;
78728;SDS011;68252;44.944;20.218;2024-02-23T03:55:01;11.70;;;4.03;;
78728;SDS011;68252;44.944;20.218;2024-02-23T03:57:28;13.50;;;4.03;;
78728;SDS011;68252;44.944;20.218;2024-02-23T03:59:55;9.63;;;3.55;;
78728;SDS011;68252;44.944;20.218;2024-02-23T04:02:21;6.85;;;3.38;;
78728;SDS011;68252;44.944;20.218;2024-02-23T04:04:47;9.15;;;3.58;;
78728;SDS011;68252;44.944;20.218;2024-02-23T04:07:13;12.23;;;4.30;;
78728;SDS011;68252;44.944;20.218;2024-02-23T04:09:40;9.18;;;4.32;;
78728;SDS011;68252;44.944;20.218;2024-02-23T04:12:06;15.10;;;5.10;;
78728;SDS011;68252;44.944;20.218;2024-02-23T04:14:33;7.53;;;4.35;;
78728;SDS011;68252;44.944;20.218;2024-02-23T04:17:02;9.18;;;3.92;;
78728;SDS011;68252;44.944;20.218;2024-02-23T04:19:28;9.18;;;4.78;;
78728;SDS011;68252;44.944;20.218;2024-02-23T04:21:54;9.73;;;4.35;;
78728;SDS011;68252;44.944;20.218;2024-02-23T04:24:21;7.82;;;4.03;;
78728;SDS011;68252;44.944;20.218;2024-02-23T04:26:47;8.13;;;3.78;;
78728;SDS011;68252;44.944;20.218;2024-02-23T04:29:13;8.98;;;3.53;;
78728;SDS011;68252;44.944;20.218;2024-02-23T04:31:39;9.85;;;3.50;;
78728;SDS011;68252;44.944;20.218;2024-02-23T04:34:05;9.50;;;3.70;;
78728;SDS011;68252;44.944;20.218;2024-02-23T04:36:31;9.25;;;3.42;;
78728;SDS011;68252;44.944;20.218;2024-02-23T04:38:57;7.05;;;3.80;;
78728;SDS011;68252;44.944;20.218;2024-02-23T04:41:23;9.77;;;3.90;;
78728;SDS011;68252;44.944;20.218;2024-02-23T04:43:49;12.23;;;6.15;;
78728;SDS011;68252;44.944;20.218;2024-02-23T04:46:15;8.50;;;4.53;;
78728;SDS011;68252;44.944;20.218;2024-02-23T04:48:42;8.70;;;3.22;;
78728;SDS011;68252;44.944;20.218;2024-02-23T04:51:08;9.40;;;3.72;;
78728;SDS011;68252;44.944;20.218;2024-02-23T04:53:37;9.32;;;3.63;;
78728;SDS011;68252;44.944;20.218;2024-02-23T04:56:04;15.52;;;4.47;;
78728;SDS011;68252;44.944;20.218;2024-02-23T04:58:30;10.10;;;3.53;;
78728;SDS011;68252;44.944;20.218;2024-02-23T05:00:56;7.68;;;3.33;;
78728;SDS011;68252;44.944;20.218;2024-02-23T05:03:22;14.32;;;4.18;;
78728;SDS011;68252;44.944;20.218;2024-02-23T05:05:49;9.57;;;4.00;;
78728;SDS011;68252;44.944;20.218;2024-02-23T05:08:19;12.95;;;4.03;;
78728;SDS011;68252;44.944;20.218;2024-02-23T05:10:46;11.18;;;4.05;;
78728;SDS011;68252;44.944;20.218;2024-02-23T05:13:12;10.80;;;3.92;;
78728;SDS011;68252;44.944;20.218;2024-02-23T05:15:38;12.52;;;4.70;;
78728;SDS011;68252;44.944;20.218;2024-02-23T05:18:04;11.52;;;4.00;;
78728;SDS011;68252;44.944;20.218;2024-02-23T05:20:31;15.65;;;4.47;;
78728;SDS011;68252;44.944;20.218;2024-02-23T05:22:57;11.60;;;3.90;;
78728;SDS011;68252;44.944;20.218;2024-02-23T05:25:23;10.10;;;4.07;;
78728;SDS011;68252;44.944;20.218;2024-02-23T05:27:51;14.45;;;4.15;;
78728;SDS011;68252;44.944;20.218;2024-02-23T05:30:17;21.73;;;4.47;;
78728;SDS011;68252;44.944;20.218;2024-02-23T05:32:43;14.90;;;4.10;;
78728;SDS011;68252;44.944;20.218;2024-02-23T05:35:09;23.63;;;4.30;;
78728;SDS011;68252;44.944;20.218;2024-02-23T05:37:38;8.75;;;3.80;;
78728;SDS011;68252;44.944;20.218;2024-02-23T05:40:05;15.02;;;4.80;;
78728;SDS011;68252;44.944;20.218;2024-02-23T05:42:35;19.20;;;4.00;;
78728;SDS011;68252;44.944;20.218;2024-02-23T05:45:02;12.55;;;4.32;;
78728;SDS011;68252;44.944;20.218;2024-02-23T05:47:30;7.32;;;3.80;;
78728;SDS011;68252;44.944;20.218;2024-02-23T05:49:56;7.60;;;3.53;;
78728;SDS011;68252;44.944;20.218;2024-02-23T05:52:22;13.65;;;3.97;;
78728;SDS011;68252;44.944;20.218;2024-02-23T05:54:48;10.23;;;4.38;;
78728;SDS011;68252;44.944;20.218;2024-02-23T05:57:16;15.35;;;4.18;;
78728;SDS011;68252;44.944;20.218;2024-02-23T05:59:43;9.90;;;4.38;;
78728;SDS011;68252;44.944;20.218;2024-02-23T06:02:09;9.13;;;3.45;;
78728;SDS011;68252;44.944;20.218;2024-02-23T06:04:35;14.93;;;3.90;;
78728;SDS011;68252;44.944;20.218;2024-02-23T06:07:01;9.27;;;3.97;;
78728;SDS011;68252;44.944;20.218;2024-02-23T06:09:27;20.10;;;4.22;;
78728;SDS011;68252;44.944;20.218;2024-02-23T06:11:53;12.05;;;3.67;;
78728;SDS011;68252;44.944;20.218;2024-02-23T06:14:19;20.50;;;4.78;;
78728;SDS011;68252;44.944;20.218;2024-02-23T06:16:45;20.52;;;6.88;;
78728;SDS011;68252;44.944;20.218;2024-02-23T06:19:11;20.10;;;4.78;;
78728;SDS011;68252;44.944;20.218;2024-02-23T06:21:38;13.45;;;4.10;;
78728;SDS011;68252;44.944;20.218;2024-02-23T06:24:04;11.32;;;4.38;;
78728;SDS011;68252;44.944;20.218;2024-02-23T06:26:30;11.80;;;4.70;;
78728;SDS011;68252;44.944;20.218;2024-02-23T06:28:56;17.48;;;4.63;;
78728;SDS011;68252;44.944;20.218;2024-02-23T06:31:22;18.02;;;4.97;;
78728;SDS011;68252;44.944;20.218;2024-02-23T06:33:48;18.38;;;5.38;;
78728;SDS011;68252;44.944;20.218;2024-02-23T06:36:16;29.67;;;6.32;;
78728;SDS011;68252;44.944;20.218;2024-02-23T06:38:43;25.85;;;5.43;;
78728;SDS011;68252;44.944;20.218;2024-02-23T06:41:09;17.55;;;5.15;;
78728;SDS011;68252;44.944;20.218;2024-02-23T06:43:36;17.80;;;4.55;;
78728;SDS011;68252;44.944;20.218;2024-02-23T06:46:08;22.58;;;5.35;;
78728;SDS011;68252;44.944;20.218;2024-02-23T06:48:35;13.68;;;5.03;;
78728;SDS011;68252;44.944;20.218;2024-02-23T06:51:02;22.35;;;4.82;;
78728;SDS011;68252;44.944;20.218;2024-02-23T06:53:29;26.73;;;6.57;;
78728;SDS011;68252;44.944;20.218;2024-02-23T06:55:55;25.05;;;6.95;;
78728;SDS011;68252;44.944;20.218;2024-02-23T06:58:22;34.30;;;6.93;;
78728;SDS011;68252;44.944;20.218;2024-02-23T07:00:50;45.95;;;7.97;;
78728;SDS011;68252;44.944;20.218;2024-02-23T07:03:17;39.85;;;8.77;;
78728;SDS011;68252;44.944;20.218;2024-02-23T07:05:45;34.70;;;8.90;;
78728;SDS011;68252;44.944;20.218;2024-02-23T07:08:12;30.67;;;8.57;;
78728;SDS011;68252;44.944;20.218;2024-02-23T07:10:38;20.70;;;6.93;;
78728;SDS011;68252;44.944;20.218;2024-02-23T07:13:05;21.00;;;7.78;;
78728;SDS011;68252;44.944;20.218;2024-02-23T07:15:32;21.13;;;7.82;;
78728;SDS011;68252;44.944;20.218;2024-02-23T07:17:58;15.68;;;5.65;;
78728;SDS011;68252;44.944;20.218;2024-02-23T07:20:24;19.30;;;7.57;;
78728;SDS011;68252;44.944;20.218;2024-02-23T07:22:50;14.20;;;6.88;;
78728;SDS011;68252;44.944;20.218;2024-02-23T07:25:20;33.35;;;12.68;;
78728;SDS011;68252;44.944;20.218;2024-02-23T07:27:46;19.55;;;9.02;;
78728;SDS011;68252;44.944;20.218;2024-02-23T07:30:14;15.40;;;7.65;;
78728;SDS011;68252;44.944;20.218;2024-02-23T07:32:41;18.35;;;8.93;;
78728;SDS011;68252;44.944;20.218;2024-02-23T07:35:08;21.42;;;8.43;;
78728;SDS011;68252;44.944;20.218;2024-02-23T07:37:34;19.80;;;8.45;;
78728;SDS011;68252;44.944;20.218;2024-02-23T07:40:00;22.73;;;9.07;;
78728;SDS011;68252;44.944;20.218;2024-02-23T07:42:28;15.30;;;6.95;;
78728;SDS011;68252;44.944;20.218;2024-02-23T07:44:54;15.00;;;7.55;;
78728;SDS011;68252;44.944;20.218;2024-02-23T07:47:21;25.70;;;7.05;;
78728;SDS011;68252;44.944;20.218;2024-02-23T07:49:47;23.90;;;7.93;;
78728;SDS011;68252;44.944;20.218;2024-02-23T07:52:13;27.77;;;7.18;;
78728;SDS011;68252;44.944;20.218;2024-02-23T07:54:39;14.75;;;6.25;;
78728;SDS011;68252;44.944;20.218;2024-02-23T07:57:05;12.95;;;6.50;;
78728;SDS011;68252;44.944;20.218;2024-02-23T07:59:32;11.45;;;5.93;;
78728;SDS011;68252;44.944;20.218;2024-02-23T08:01:58;21.20;;;5.60;;
78728;SDS011;68252;44.944;20.218;2024-02-23T08:04:25;17.33;;;6.75;;
78728;SDS011;68252;44.944;20.218;2024-02-23T08:06:51;16.40;;;6.70;;
78728;SDS011;68252;44.944;20.218;2024-02-23T08:09:17;18.48;;;6.57;;
78728;SDS011;68252;44.944;20.218;2024-02-23T08:11:43;15.75;;;5.75;;
78728;SDS011;68252;44.944;20.218;2024-02-23T08:14:11;22.95;;;6.95;;
78728;SDS011;68252;44.944;20.218;2024-02-23T08:16:37;17.50;;;5.90;;
78728;SDS011;68252;44.944;20.218;2024-02-23T08:19:03;27.60;;;5.72;;
78728;SDS011;68252;44.944;20.218;2024-02-23T08:21:29;16.30;;;5.70;;
78728;SDS011;68252;44.944;20.218;2024-02-23T08:23:55;17.27;;;4.78;;
78728;SDS011;68252;44.944;20.218;2024-02-23T08:26:22;17.40;;;5.00;;
78728;SDS011;68252;44.944;20.218;2024-02-23T08:28:48;15.88;;;5.28;;
78728;SDS011;68252;44.944;20.218;2024-02-23T08:31:14;12.38;;;4.43;;
78728;SDS011;68252;44.944;20.218;2024-02-23T08:33:41;16.08;;;4.35;;
78728;SDS011;68252;44.944;20.218;2024-02-23T08:36:07;11.05;;;4.22;;
78728;SDS011;68252;44.944;20.218;2024-02-23T08:38:34;12.40;;;4.45;;
78728;SDS011;68252;44.944;20.218;2024-02-23T08:41:00;14.25;;;4.63;;
78728;SDS011;68252;44.944;20.218;2024-02-23T08:43:26;17.77;;;5.40;;
78728;SDS011;68252;44.944;20.218;2024-02-23T08:45:52;23.40;;;4.95;;
78728;SDS011;68252;44.944;20.218;2024-02-23T08:48:18;11.75;;;4.90;;
78728;SDS011;68252;44.944;20.218;2024-02-23T08:50:44;11.90;;;5.80;;
78728;SDS011;68252;44.944;20.218;2024-02-23T08:53:10;14.98;;;4.90;;
78728;SDS011;68252;44.944;20.218;2024-02-23T08:55:36;19.77;;;4.97;;
78728;SDS011;68252;44.944;20.218;2024-02-23T08:58:03;16.10;;;5.05;;
78728;SDS011;68252;44.944;20.218;2024-02-23T09:00:30;14.65;;;4.85;;
78728;SDS011;68252;44.944;20.218;2024-02-23T09:02:57;10.73;;;3.95;;
78728;SDS011;68252;44.944;20.218;2024-02-23T09:05:23;21.05;;;5.15;;
78728;SDS011;68252;44.944;20.218;2024-02-23T09:07:49;13.93;;;4.22;;
78728;SDS011;68252;44.944;20.218;2024-02-23T09:10:15;9.50;;;3.90;;
78728;SDS011;68252;44.944;20.218;2024-02-23T09:12:43;16.08;;;5.38;;
78728;SDS011;68252;44.944;20.218;2024-02-23T09:15:09;13.68;;;6.68;;
78728;SDS011;68252;44.944;20.218;2024-02-23T09:17:35;22.98;;;4.88;;
78728;SDS011;68252;44.944;20.218;2024-02-23T09:20:01;15.93;;;4.90;;
78728;SDS011;68252;44.944;20.218;2024-02-23T09:22:27;15.88;;;4.70;;
78728;SDS011;68252;44.944;20.218;2024-02-23T09:24:54;12.48;;;4.22;;
78728;SDS011;68252;44.944;20.218;2024-02-23T09:27:22;14.93;;;4.40;;
78728;SDS011;68252;44.944;20.218;2024-02-23T09:29:53;21.20;;;4.65;;
78728;SDS011;68252;44.944;20.218;2024-02-23T09:32:22;18.42;;;6.05;;
78728;SDS011;68252;44.944;20.218;2024-02-23T09:34:48;22.75;;;5.10;;
78728;SDS011;68252;44.944;20.218;2024-02-23T09:37:14;12.65;;;4.63;;
78728;SDS011;68252;44.944;20.218;2024-02-23T09:39:40;11.23;;;5.90;;
78728;SDS011;68252;44.944;20.218;2024-02-23T09:42:08;19.38;;;5.65;;
78728;SDS011;68252;44.944;20.218;2024-02-23T09:44:35;11.15;;;4.47;;
78728;SDS011;68252;44.944;20.218;2024-02-23T09:47:02;12.63;;;4.50;;
78728;SDS011;68252;44.944;20.218;2024-02-23T09:49:38;17.92;;;4.28;;
78728;SDS011;68252;44.944;20.218;2024-02-23T09:52:08;11.32;;;4.80;;
78728;SDS011;68252;44.944;20.218;2024-02-23T09:54:35;6.57;;;3.75;;
78728;SDS011;68252;44.944;20.218;2024-02-23T09:57:02;17.35;;;5.05;;
78728;SDS011;68252;44.944;20.218;2024-02-23T09:59:30;26.80;;;5.43;;
78728;SDS011;68252;44.944;20.218;2024-02-23T10:01:56;9.65;;;3.83;;
78728;SDS011;68252;44.944;20.218;2024-02-23T10:04:23;14.48;;;3.90;;
78728;SDS011;68252;44.944;20.218;2024-02-23T10:06:50;11.02;;;3.60;;
78728;SDS011;68252;44.944;20.218;2024-02-23T10:09:16;11.63;;;4.10;;
78728;SDS011;68252;44.944;20.218;2024-02-23T10:11:42;19.45;;;6.65;;
78728;SDS011;68252;44.944;20.218;2024-02-23T10:14:08;9.63;;;3.80;;
78728;SDS011;68252;44.944;20.218;2024-02-23T10:16:34;8.77;;;3.83;;
78728;SDS011;68252;44.944;20.218;2024-02-23T10:19:00;8.30;;;3.45;;
78728;SDS011;68252;44.944;20.218;2024-02-23T10:21:26;8.45;;;4.57;;
78728;SDS011;68252;44.944;20.218;2024-02-23T10:23:53;10.60;;;4.40;;
78728;SDS011;68252;44.944;20.218;2024-02-23T10:26:19;12.20;;;4.15;;
78728;SDS011;68252;44.944;20.218;2024-02-23T10:28:47;13.87;;;4.03;;
78728;SDS011;68252;44.944;20.218;2024-02-23T10:31:13;13.80;;;4.93;;
78728;SDS011;68252;44.944;20.218;2024-02-23T10:33:40;12.40;;;3.90;;
78728;SDS011;68252;44.944;20.218;2024-02-23T10:36:06;10.30;;;3.72;;
78728;SDS011;68252;44.944;20.218;2024-02-23T10:38:37;22.52;;;3.25;;
78728;SDS011;68252;44.944;20.218;2024-02-23T10:41:06;17.95;;;3.83;;
78728;SDS011;68252;44.944;20.218;2024-02-23T10:43:36;8.13;;;3.65;;
78728;SDS011;68252;44.944;20.218;2024-02-23T10:46:05;21.30;;;4.38;;
78728;SDS011;68252;44.944;20.218;2024-02-23T10:48:33;21.65;;;3.97;;
78728;SDS011;68252;44.944;20.218;2024-02-23T10:51:01;11.32;;;3.58;;
78728;SDS011;68252;44.944;20.218;2024-02-23T10:53:30;31.25;;;4.63;;
78728;SDS011;68252;44.944;20.218;2024-02-23T10:55:57;34.78;;;5.75;;
78728;SDS011;68252;44.944;20.218;2024-02-23T10:58:23;18.17;;;5.43;;
78728;SDS011;68252;44.944;20.218;2024-02-23T11:00:49;17.10;;;4.35;;
78728;SDS011;68252;44.944;20.218;2024-02-23T11:03:15;11.45;;;4.88;;
78728;SDS011;68252;44.944;20.218;2024-02-23T11:05:42;12.65;;;4.78;;
78728;SDS011;68252;44.944;20.218;2024-02-23T11:08:08;22.92;;;4.95;;
78728;SDS011;68252;44.944;20.218;2024-02-23T11:10:50;14.60;;;4.15;;
78728;SDS011;68252;44.944;20.218;2024-02-23T11:13:17;15.23;;;4.35;;
78728;SDS011;68252;44.944;20.218;2024-02-23T11:15:43;13.60;;;4.05;;
78728;SDS011;68252;44.944;20.218;2024-02-23T11:18:22;14.52;;;3.05;;
78728;SDS011;68252;44.944;20.218;2024-02-23T11:20:58;13.18;;;3.58;;
78728;SDS011;68252;44.944;20.218;2024-02-23T11:23:25;17.92;;;3.65;;
78728;SDS011;68252;44.944;20.218;2024-02-23T11:28:26;15.15;;;3.20;;
78728;SDS011;68252;44.944;20.218;2024-02-23T11:30:52;13.30;;;3.50;;
78728;SDS011;68252;44.944;20.218;2024-02-23T11:33:37;12.30;;;3.53;;
78728;SDS011;68252;44.944;20.218;2024-02-23T11:36:06;14.45;;;3.20;;
78728;SDS011;68252;44.944;20.218;2024-02-23T11:38:33;14.88;;;3.70;;
78728;SDS011;68252;44.944;20.218;2024-02-23T11:40:59;7.45;;;3.00;;
78728;SDS011;68252;44.944;20.218;2024-02-23T11:43:26;14.80;;;4.07;;
78728;SDS011;68252;44.944;20.218;2024-02-23T11:45:53;9.88;;;3.10;;
78728;SDS011;68252;44.944;20.218;2024-02-23T11:48:19;16.38;;;3.08;;
78728;SDS011;68252;44.944;20.218;2024-02-23T11:50:47;11.82;;;3.22;;
78728;SDS011;68252;44.944;20.218;2024-02-23T11:53:14;19.17;;;3.47;;
78728;SDS011;68252;44.944;20.218;2024-02-23T11:55:40;13.25;;;3.88;;
78728;SDS011;68252;44.944;20.218;2024-02-23T11:58:06;19.48;;;3.03;;
78728;SDS011;68252;44.944;20.218;2024-02-23T12:00:32;7.88;;;3.28;;
78728;SDS011;68252;44.944;20.218;2024-02-23T12:03:00;23.60;;;3.55;;
78728;SDS011;68252;44.944;20.218;2024-02-23T12:05:26;11.65;;;2.97;;
78728;SDS011;68252;44.944;20.218;2024-02-23T12:07:53;18.13;;;3.80;;
78728;SDS011;68252;44.944;20.218;2024-02-23T12:10:19;11.98;;;3.97;;
78728;SDS011;68252;44.944;20.218;2024-02-23T12:12:46;10.27;;;3.30;;
78728;SDS011;68252;44.944;20.218;2024-02-23T12:15:12;12.15;;;3.30;;
78728;SDS011;68252;44.944;20.218;2024-02-23T12:17:46;13.20;;;3.55;;
78728;SDS011;68252;44.944;20.218;2024-02-23T12:20:12;13.60;;;4.32;;
78728;SDS011;68252;44.944;20.218;2024-02-23T12:22:40;18.02;;;3.47;;
78728;SDS011;68252;44.944;20.218;2024-02-23T12:25:06;17.42;;;3.65;;
78728;SDS011;68252;44.944;20.218;2024-02-23T12:27:32;15.98;;;3.85;;
78728;SDS011;68252;44.944;20.218;2024-02-23T12:29:58;14.15;;;4.68;;
78728;SDS011;68252;44.944;20.218;2024-02-23T12:32:25;16.92;;;4.60;;
78728;SDS011;68252;44.944;20.218;2024-02-23T12:34:52;12.52;;;3.65;;
78728;SDS011;68252;44.944;20.218;2024-02-23T12:37:20;14.88;;;4.00;;
78728;SDS011;68252;44.944;20.218;2024-02-23T12:39:50;21.90;;;4.53;;
78728;SDS011;68252;44.944;20.218;2024-02-23T12:42:16;17.45;;;4.07;;
78728;SDS011;68252;44.944;20.218;2024-02-23T12:44:43;13.55;;;3.28;;
78728;SDS011;68252;44.944;20.218;2024-02-23T12:47:09;9.52;;;3.88;;
78728;SDS011;68252;44.944;20.218;2024-02-23T12:49:35;13.32;;;3.60;;
78728;SDS011;68252;44.944;20.218;2024-02-23T12:52:01;13.50;;;3.22;;
78728;SDS011;68252;44.944;20.218;2024-02-23T12:54:27;11.82;;;3.65;;
78728;SDS011;68252;44.944;20.218;2024-02-23T12:56:53;11.70;;;3.08;;
78728;SDS011;68252;44.944;20.218;2024-02-23T12:59:19;6.68;;;2.58;;
78728;SDS011;68252;44.944;20.218;2024-02-23T13:01:45;21.48;;;3.60;;
78728;SDS011;68252;44.944;20.218;2024-02-23T13:04:11;6.78;;;2.92;;
78728;SDS011;68252;44.944;20.218;2024-02-23T13:06:39;11.48;;;2.80;;
78728;SDS011;68252;44.944;20.218;2024-02-23T13:09:07;8.48;;;2.08;;
78728;SDS011;68252;44.944;20.218;2024-02-23T13:11:34;5.38;;;2.97;;
78728;SDS011;68252;44.944;20.218;2024-02-23T13:14:00;10.35;;;3.35;;
78728;SDS011;68252;44.944;20.218;2024-02-23T13:16:27;19.67;;;3.33;;
78728;SDS011;68252;44.944;20.218;2024-02-23T13:18:53;12.75;;;3.65;;
78728;SDS011;68252;44.944;20.218;2024-02-23T13:21:19;25.23;;;5.97;;
78728;SDS011;68252;44.944;20.218;2024-02-23T13:23:45;9.88;;;3.05;;
78728;SDS011;68252;44.944;20.218;2024-02-23T13:26:11;9.88;;;3.00;;
78728;SDS011;68252;44.944;20.218;2024-02-23T13:28:39;5.68;;;2.70;;
78728;SDS011;68252;44.944;20.218;2024-02-23T13:31:06;8.68;;;3.00;;
78728;SDS011;68252;44.944;20.218;2024-02-23T13:33:32;14.70;;;3.58;;
78728;SDS011;68252;44.944;20.218;2024-02-23T13:35:58;10.18;;;4.55;;
78728;SDS011;68252;44.944;20.218;2024-02-23T13:38:24;11.40;;;3.50;;
78728;SDS011;68252;44.944;20.218;2024-02-23T13:40:50;7.43;;;2.97;;
78728;SDS011;68252;44.944;20.218;2024-02-23T13:43:17;9.48;;;2.75;;
78728;SDS011;68252;44.944;20.218;2024-02-23T13:45:49;9.52;;;3.03;;
78728;SDS011;68252;44.944;20.218;2024-02-23T13:48:16;15.50;;;3.03;;
78728;SDS011;68252;44.944;20.218;2024-02-23T13:50:44;8.38;;;2.92;;
78728;SDS011;68252;44.944;20.218;2024-02-23T13:53:11;6.20;;;3.65;;
78728;SDS011;68252;44.944;20.218;2024-02-23T13:55:40;12.65;;;3.10;;
78728;SDS011;68252;44.944;20.218;2024-02-23T13:58:10;11.00;;;2.80;;
78728;SDS011;68252;44.944;20.218;2024-02-23T14:00:37;10.05;;;2.95;;
78728;SDS011;68252;44.944;20.218;2024-02-23T14:03:03;12.93;;;2.58;;
78728;SDS011;68252;44.944;20.218;2024-02-23T14:05:29;12.00;;;2.53;;
78728;SDS011;68252;44.944;20.218;2024-02-23T14:07:55;5.88;;;2.97;;
78728;SDS011;68252;44.944;20.218;2024-02-23T14:10:21;11.48;;;6.38;;
78728;SDS011;68252;44.944;20.218;2024-02-23T14:12:48;23.75;;;7.47;;
78728;SDS011;68252;44.944;20.218;2024-02-23T14:15:17;26.50;;;8.50;;
78728;SDS011;68252;44.944;20.218;2024-02-23T14:17:43;16.77;;;10.13;;
78728;SDS011;68252;44.944;20.218;2024-02-23T14:20:09;16.02;;;8.25;;
78728;SDS011;68252;44.944;20.218;2024-02-23T14:22:35;15.20;;;6.32;;